sensor_id;sensor_type;location;lat;lon;timestamp;P1;durP1;ratioP1;P2;durP2;ratioP2
16612;SDS011;8419;52.358;9.752;2022-12-24T00:02:13;9.18;;;4.70;;
16612;SDS011;8419;52.358;9.752;2022-12-24T00:04:59;8.50;;;4.60;;
16612;SDS011;8419;52.358;9.752;2022-12-24T00:07:44;6.40;;;4.70;;
16612;SDS011;8419;52.358;9.752;2022-12-24T00:10:29;6.55;;;4.03;;
16612;SDS011;8419;52.358;9.752;2022-12-24T00:13:15;5.45;;;3.97;;
16612;SDS011;8419;52.358;9.752;2022-12-24T00:16:00;5.47;;;4.35;;
16612;SDS011;8419;52.358;9.752;2022-12-24T00:18:45;5.40;;;4.03;;
16612;SDS011;8419;52.358;9.752;2022-12-24T00:21:30;5.87;;;4.47;;
16612;SDS011;8419;52.358;9.752;2022-12-24T00:24:15;7.60;;;4.40;;
16612;SDS011;8419;52.358;9.752;2022-12-24T00:27:00;5.85;;;4.12;;
16612;SDS011;8419;52.358;9.752;2022-12-24T00:29:46;5.68;;;3.78;;
16612;SDS011;8419;52.358;9.752;2022-12-24T00:32:31;6.15;;;3.92;;
16612;SDS011;8419;52.358;9.752;2022-12-24T00:35:16;5.22;;;4.10;;
16612;SDS011;8419;52.358;9.752;2022-12-24T00:38:02;4.78;;;3.40;;
16612;SDS011;8419;52.358;9.752;2022-12-24T00:40:48;5.75;;;3.90;;
16612;SDS011;8419;52.358;9.752;2022-12-24T00:43:33;6.93;;;4.22;;
16612;SDS011;8419;52.358;9.752;2022-12-24T00:46:19;7.03;;;4.50;;
16612;SDS011;8419;52.358;9.752;2022-12-24T00:49:05;6.57;;;4.43;;
16612;SDS011;8419;52.358;9.752;2022-12-24T00:51:51;6.05;;;4.03;;
16612;SDS011;8419;52.358;9.752;2022-12-24T00:54:37;6.05;;;3.92;;
16612;SDS011;8419;52.358;9.752;2022-12-24T00:57:22;5.57;;;3.70;;
16612;SDS011;8419;52.358;9.752;2022-12-24T01:00:08;6.45;;;4.30;;
16612;SDS011;8419;52.358;9.752;2022-12-24T01:02:54;7.00;;;4.65;;
16612;SDS011;8419;52.358;9.752;2022-12-24T01:05:40;6.37;;;4.40;;
16612;SDS011;8419;52.358;9.752;2022-12-24T01:08:25;5.10;;;3.83;;
16612;SDS011;8419;52.358;9.752;2022-12-24T01:11:10;7.37;;;4.68;;
16612;SDS011;8419;52.358;9.752;2022-12-24T01:13:57;5.37;;;3.67;;
16612;SDS011;8419;52.358;9.752;2022-12-24T01:16:42;5.45;;;4.12;;
16612;SDS011;8419;52.358;9.752;2022-12-24T01:19:28;6.28;;;4.30;;
16612;SDS011;8419;52.358;9.752;2022-12-24T01:22:13;5.05;;;3.35;;
16612;SDS011;8419;52.358;9.752;2022-12-24T01:24:59;4.87;;;3.78;;
16612;SDS011;8419;52.358;9.752;2022-12-24T01:27:44;6.72;;;4.35;;
16612;SDS011;8419;52.358;9.752;2022-12-24T01:30:30;5.30;;;3.72;;
16612;SDS011;8419;52.358;9.752;2022-12-24T01:33:15;5.47;;;4.00;;
16612;SDS011;8419;52.358;9.752;2022-12-24T01:36:01;6.35;;;4.40;;
16612;SDS011;8419;52.358;9.752;2022-12-24T01:38:47;5.68;;;4.05;;
16612;SDS011;8419;52.358;9.752;2022-12-24T01:41:32;4.85;;;3.95;;
16612;SDS011;8419;52.358;9.752;2022-12-24T01:44:38;5.15;;;4.03;;
16612;SDS011;8419;52.358;9.752;2022-12-24T01:47:26;6.55;;;4.43;;
16612;SDS011;8419;52.358;9.752;2022-12-24T01:50:14;5.28;;;3.90;;
16612;SDS011;8419;52.358;9.752;2022-12-24T01:53:00;5.60;;;3.60;;
16612;SDS011;8419;52.358;9.752;2022-12-24T01:55:47;5.68;;;3.92;;
16612;SDS011;8419;52.358;9.752;2022-12-24T01:58:35;5.57;;;4.07;;
16612;SDS011;8419;52.358;9.752;2022-12-24T02:01:23;6.35;;;4.57;;
16612;SDS011;8419;52.358;9.752;2022-12-24T02:04:10;7.35;;;3.85;;
16612;SDS011;8419;52.358;9.752;2022-12-24T02:07:01;6.20;;;4.57;;
16612;SDS011;8419;52.358;9.752;2022-12-24T02:09:46;7.45;;;4.80;;
16612;SDS011;8419;52.358;9.752;2022-12-24T02:12:37;9.07;;;4.77;;
16612;SDS011;8419;52.358;9.752;2022-12-24T02:15:24;5.93;;;4.00;;
16612;SDS011;8419;52.358;9.752;2022-12-24T02:18:13;7.30;;;4.40;;
16612;SDS011;8419;52.358;9.752;2022-12-24T02:21:23;7.03;;;4.28;;
16612;SDS011;8419;52.358;9.752;2022-12-24T02:27:54;5.50;;;3.75;;
16612;SDS011;8419;52.358;9.752;2022-12-24T02:30:44;8.07;;;3.15;;
16612;SDS011;8419;52.358;9.752;2022-12-24T02:33:37;5.75;;;3.30;;
16612;SDS011;8419;52.358;9.752;2022-12-24T02:36:28;3.45;;;1.35;;
16612;SDS011;8419;52.358;9.752;2022-12-24T02:39:17;2.60;;;1.02;;
16612;SDS011;8419;52.358;9.752;2022-12-24T02:42:07;1.73;;;0.68;;
16612;SDS011;8419;52.358;9.752;2022-12-24T02:44:55;6.40;;;1.80;;
16612;SDS011;8419;52.358;9.752;2022-12-24T02:47:44;5.32;;;1.45;;
16612;SDS011;8419;52.358;9.752;2022-12-24T02:50:32;6.45;;;1.48;;
16612;SDS011;8419;52.358;9.752;2022-12-24T02:53:18;7.25;;;1.70;;
16612;SDS011;8419;52.358;9.752;2022-12-24T02:56:10;5.50;;;1.87;;
16612;SDS011;8419;52.358;9.752;2022-12-24T02:59:18;6.68;;;2.00;;
16612;SDS011;8419;52.358;9.752;2022-12-24T03:02:20;3.80;;;1.52;;
16612;SDS011;8419;52.358;9.752;2022-12-24T03:05:16;5.95;;;1.55;;
16612;SDS011;8419;52.358;9.752;2022-12-24T03:08:12;2.35;;;1.05;;
16612;SDS011;8419;52.358;9.752;2022-12-24T03:11:05;5.60;;;1.10;;
16612;SDS011;8419;52.358;9.752;2022-12-24T03:13:54;2.42;;;1.25;;
16612;SDS011;8419;52.358;9.752;2022-12-24T03:16:43;5.43;;;1.37;;
16612;SDS011;8419;52.358;9.752;2022-12-24T03:19:30;3.62;;;1.37;;
16612;SDS011;8419;52.358;9.752;2022-12-24T03:22:16;8.15;;;1.98;;
16612;SDS011;8419;52.358;9.752;2022-12-24T03:25:04;4.37;;;1.25;;
16612;SDS011;8419;52.358;9.752;2022-12-24T03:27:50;2.90;;;0.95;;
16612;SDS011;8419;52.358;9.752;2022-12-24T03:30:39;0.95;;;0.40;;
16612;SDS011;8419;52.358;9.752;2022-12-24T03:33:26;8.02;;;1.73;;
16612;SDS011;8419;52.358;9.752;2022-12-24T03:36:12;5.12;;;1.67;;
16612;SDS011;8419;52.358;9.752;2022-12-24T03:38:59;3.12;;;1.33;;
16612;SDS011;8419;52.358;9.752;2022-12-24T03:41:44;5.25;;;1.48;;
16612;SDS011;8419;52.358;9.752;2022-12-24T03:44:30;8.15;;;2.20;;
16612;SDS011;8419;52.358;9.752;2022-12-24T03:47:15;1.15;;;0.60;;
16612;SDS011;8419;52.358;9.752;2022-12-24T03:50:01;5.90;;;1.95;;
16612;SDS011;8419;52.358;9.752;2022-12-24T03:52:46;3.42;;;1.48;;
16612;SDS011;8419;52.358;9.752;2022-12-24T03:55:32;8.43;;;1.90;;
16612;SDS011;8419;52.358;9.752;2022-12-24T03:58:21;8.30;;;1.62;;
16612;SDS011;8419;52.358;9.752;2022-12-24T04:01:05;4.93;;;1.70;;
16612;SDS011;8419;52.358;9.752;2022-12-24T04:03:51;10.45;;;1.92;;
16612;SDS011;8419;52.358;9.752;2022-12-24T04:06:36;8.23;;;1.85;;
16612;SDS011;8419;52.358;9.752;2022-12-24T04:09:21;1.27;;;0.77;;
16612;SDS011;8419;52.358;9.752;2022-12-24T04:12:07;5.45;;;1.10;;
16612;SDS011;8419;52.358;9.752;2022-12-24T04:14:52;6.93;;;1.98;;
16612;SDS011;8419;52.358;9.752;2022-12-24T04:17:38;3.28;;;1.23;;
16612;SDS011;8419;52.358;9.752;2022-12-24T04:20:23;3.15;;;0.68;;
16612;SDS011;8419;52.358;9.752;2022-12-24T04:23:08;3.05;;;1.20;;
16612;SDS011;8419;52.358;9.752;2022-12-24T04:25:53;1.65;;;1.02;;
16612;SDS011;8419;52.358;9.752;2022-12-24T04:28:39;13.52;;;2.55;;
16612;SDS011;8419;52.358;9.752;2022-12-24T04:31:26;2.80;;;1.62;;
16612;SDS011;8419;52.358;9.752;2022-12-24T04:34:11;4.12;;;1.27;;
16612;SDS011;8419;52.358;9.752;2022-12-24T04:36:56;9.70;;;1.15;;
16612;SDS011;8419;52.358;9.752;2022-12-24T04:39:43;6.62;;;1.70;;
16612;SDS011;8419;52.358;9.752;2022-12-24T04:42:28;5.82;;;1.08;;
16612;SDS011;8419;52.358;9.752;2022-12-24T04:45:14;2.25;;;0.90;;
16612;SDS011;8419;52.358;9.752;2022-12-24T04:48:00;0.90;;;0.57;;
16612;SDS011;8419;52.358;9.752;2022-12-24T04:50:45;3.08;;;1.12;;
16612;SDS011;8419;52.358;9.752;2022-12-24T04:53:31;5.35;;;1.45;;
16612;SDS011;8419;52.358;9.752;2022-12-24T04:56:18;5.47;;;1.35;;
16612;SDS011;8419;52.358;9.752;2022-12-24T04:59:05;7.00;;;1.33;;
16612;SDS011;8419;52.358;9.752;2022-12-24T05:01:51;7.47;;;1.55;;
16612;SDS011;8419;52.358;9.752;2022-12-24T05:04:36;3.20;;;1.25;;
16612;SDS011;8419;52.358;9.752;2022-12-24T05:07:21;7.07;;;1.15;;
16612;SDS011;8419;52.358;9.752;2022-12-24T05:10:13;6.30;;;1.33;;
16612;SDS011;8419;52.358;9.752;2022-12-24T05:12:59;7.28;;;1.62;;
16612;SDS011;8419;52.358;9.752;2022-12-24T05:15:44;11.02;;;1.95;;
16612;SDS011;8419;52.358;9.752;2022-12-24T05:18:29;8.07;;;1.10;;
16612;SDS011;8419;52.358;9.752;2022-12-24T05:21:17;3.33;;;0.88;;
16612;SDS011;8419;52.358;9.752;2022-12-24T05:24:04;3.03;;;1.40;;
16612;SDS011;8419;52.358;9.752;2022-12-24T05:27:11;1.40;;;0.98;;
16612;SDS011;8419;52.358;9.752;2022-12-24T05:29:56;8.02;;;2.08;;
16612;SDS011;8419;52.358;9.752;2022-12-24T05:32:42;2.83;;;1.42;;
16612;SDS011;8419;52.358;9.752;2022-12-24T05:35:27;9.73;;;2.05;;
16612;SDS011;8419;52.358;9.752;2022-12-24T05:38:13;2.75;;;0.98;;
16612;SDS011;8419;52.358;9.752;2022-12-24T05:40:58;8.65;;;2.12;;
16612;SDS011;8419;52.358;9.752;2022-12-24T05:43:43;9.70;;;2.20;;
16612;SDS011;8419;52.358;9.752;2022-12-24T05:46:28;11.68;;;2.35;;
16612;SDS011;8419;52.358;9.752;2022-12-24T05:49:14;8.75;;;2.12;;
16612;SDS011;8419;52.358;9.752;2022-12-24T05:51:59;14.80;;;3.03;;
16612;SDS011;8419;52.358;9.752;2022-12-24T05:54:44;11.75;;;3.10;;
16612;SDS011;8419;52.358;9.752;2022-12-24T05:57:29;2.75;;;1.17;;
16612;SDS011;8419;52.358;9.752;2022-12-24T06:00:15;10.32;;;1.62;;
16612;SDS011;8419;52.358;9.752;2022-12-24T06:03:01;13.05;;;2.60;;
16612;SDS011;8419;52.358;9.752;2022-12-24T06:05:47;10.95;;;2.92;;
16612;SDS011;8419;52.358;9.752;2022-12-24T06:08:33;12.95;;;1.77;;
16612;SDS011;8419;52.358;9.752;2022-12-24T06:11:21;5.03;;;1.83;;
16612;SDS011;8419;52.358;9.752;2022-12-24T06:14:07;6.82;;;2.05;;
16612;SDS011;8419;52.358;9.752;2022-12-24T06:16:53;9.77;;;2.50;;
16612;SDS011;8419;52.358;9.752;2022-12-24T06:19:38;9.48;;;2.28;;
16612;SDS011;8419;52.358;9.752;2022-12-24T06:22:23;11.30;;;2.67;;
16612;SDS011;8419;52.358;9.752;2022-12-24T06:25:08;6.55;;;2.12;;
16612;SDS011;8419;52.358;9.752;2022-12-24T06:27:54;10.05;;;2.25;;
16612;SDS011;8419;52.358;9.752;2022-12-24T06:30:40;7.05;;;1.08;;
16612;SDS011;8419;52.358;9.752;2022-12-24T06:33:29;8.02;;;2.47;;
16612;SDS011;8419;52.358;9.752;2022-12-24T06:36:15;4.15;;;1.58;;
16612;SDS011;8419;52.358;9.752;2022-12-24T06:39:02;10.10;;;2.95;;
16612;SDS011;8419;52.358;9.752;2022-12-24T06:41:48;13.18;;;3.55;;
16612;SDS011;8419;52.358;9.752;2022-12-24T06:44:33;5.90;;;1.92;;
16612;SDS011;8419;52.358;9.752;2022-12-24T06:47:20;13.65;;;3.12;;
16612;SDS011;8419;52.358;9.752;2022-12-24T06:50:06;17.40;;;2.97;;
16612;SDS011;8419;52.358;9.752;2022-12-24T06:52:52;16.50;;;3.00;;
16612;SDS011;8419;52.358;9.752;2022-12-24T06:55:37;15.05;;;3.53;;
16612;SDS011;8419;52.358;9.752;2022-12-24T06:58:23;7.78;;;1.77;;
16612;SDS011;8419;52.358;9.752;2022-12-24T07:01:09;10.48;;;2.92;;
16612;SDS011;8419;52.358;9.752;2022-12-24T07:03:56;10.25;;;1.90;;
16612;SDS011;8419;52.358;9.752;2022-12-24T07:06:42;3.55;;;1.52;;
16612;SDS011;8419;52.358;9.752;2022-12-24T07:09:27;4.65;;;2.05;;
16612;SDS011;8419;52.358;9.752;2022-12-24T07:12:12;10.52;;;2.92;;
16612;SDS011;8419;52.358;9.752;2022-12-24T07:14:58;14.05;;;3.17;;
16612;SDS011;8419;52.358;9.752;2022-12-24T07:17:43;6.53;;;1.70;;
16612;SDS011;8419;52.358;9.752;2022-12-24T07:20:29;10.27;;;1.92;;
16612;SDS011;8419;52.358;9.752;2022-12-24T07:23:15;7.00;;;2.65;;
16612;SDS011;8419;52.358;9.752;2022-12-24T07:26:04;6.80;;;1.58;;
16612;SDS011;8419;52.358;9.752;2022-12-24T07:28:56;8.13;;;1.30;;
16612;SDS011;8419;52.358;9.752;2022-12-24T07:31:43;3.72;;;1.30;;
16612;SDS011;8419;52.358;9.752;2022-12-24T07:34:29;10.02;;;2.47;;
16612;SDS011;8419;52.358;9.752;2022-12-24T07:37:14;9.65;;;1.60;;
16612;SDS011;8419;52.358;9.752;2022-12-24T07:39:59;11.40;;;2.42;;
16612;SDS011;8419;52.358;9.752;2022-12-24T07:42:44;8.50;;;2.08;;
16612;SDS011;8419;52.358;9.752;2022-12-24T07:45:30;9.73;;;1.95;;
16612;SDS011;8419;52.358;9.752;2022-12-24T07:48:15;14.18;;;2.45;;
16612;SDS011;8419;52.358;9.752;2022-12-24T07:51:00;6.95;;;2.17;;
16612;SDS011;8419;52.358;9.752;2022-12-24T07:53:46;10.60;;;3.12;;
16612;SDS011;8419;52.358;9.752;2022-12-24T07:59:17;14.40;;;2.22;;
16612;SDS011;8419;52.358;9.752;2022-12-24T08:02:02;13.98;;;2.15;;
16612;SDS011;8419;52.358;9.752;2022-12-24T08:04:48;9.18;;;1.48;;
16612;SDS011;8419;52.358;9.752;2022-12-24T08:07:33;12.40;;;1.92;;
16612;SDS011;8419;52.358;9.752;2022-12-24T08:10:18;5.60;;;1.40;;
16612;SDS011;8419;52.358;9.752;2022-12-24T08:13:03;8.68;;;2.12;;
16612;SDS011;8419;52.358;9.752;2022-12-24T08:15:49;12.18;;;2.65;;
16612;SDS011;8419;52.358;9.752;2022-12-24T08:18:35;9.43;;;2.20;;
16612;SDS011;8419;52.358;9.752;2022-12-24T08:21:20;11.98;;;2.55;;
16612;SDS011;8419;52.358;9.752;2022-12-24T08:24:05;8.35;;;2.33;;
16612;SDS011;8419;52.358;9.752;2022-12-24T08:26:51;8.88;;;2.00;;
16612;SDS011;8419;52.358;9.752;2022-12-24T08:29:36;5.90;;;1.55;;
16612;SDS011;8419;52.358;9.752;2022-12-24T08:32:22;5.53;;;1.90;;
16612;SDS011;8419;52.358;9.752;2022-12-24T08:35:08;9.32;;;1.10;;
16612;SDS011;8419;52.358;9.752;2022-12-24T08:37:53;6.30;;;2.30;;
16612;SDS011;8419;52.358;9.752;2022-12-24T08:40:39;7.05;;;2.55;;
16612;SDS011;8419;52.358;9.752;2022-12-24T08:43:24;4.82;;;1.17;;
16612;SDS011;8419;52.358;9.752;2022-12-24T08:46:09;2.55;;;1.00;;
16612;SDS011;8419;52.358;9.752;2022-12-24T08:48:55;14.35;;;3.70;;
16612;SDS011;8419;52.358;9.752;2022-12-24T08:51:40;14.68;;;3.05;;
16612;SDS011;8419;52.358;9.752;2022-12-24T08:54:25;11.70;;;3.80;;
16612;SDS011;8419;52.358;9.752;2022-12-24T08:57:11;13.43;;;2.58;;
16612;SDS011;8419;52.358;9.752;2022-12-24T08:59:57;13.30;;;3.10;;
16612;SDS011;8419;52.358;9.752;2022-12-24T09:02:42;10.00;;;3.03;;
16612;SDS011;8419;52.358;9.752;2022-12-24T09:05:28;10.63;;;3.17;;
16612;SDS011;8419;52.358;9.752;2022-12-24T09:08:13;13.50;;;3.58;;
16612;SDS011;8419;52.358;9.752;2022-12-24T09:11:01;4.70;;;2.17;;
16612;SDS011;8419;52.358;9.752;2022-12-24T09:13:48;12.60;;;3.95;;
16612;SDS011;8419;52.358;9.752;2022-12-24T09:16:33;14.10;;;4.65;;
16612;SDS011;8419;52.358;9.752;2022-12-24T09:19:19;14.60;;;4.50;;
16612;SDS011;8419;52.358;9.752;2022-12-24T09:22:04;10.27;;;3.40;;
16612;SDS011;8419;52.358;9.752;2022-12-24T09:24:49;15.68;;;3.78;;
16612;SDS011;8419;52.358;9.752;2022-12-24T09:27:36;15.05;;;4.50;;
16612;SDS011;8419;52.358;9.752;2022-12-24T09:30:22;11.95;;;4.45;;
16612;SDS011;8419;52.358;9.752;2022-12-24T09:33:07;16.50;;;4.60;;
16612;SDS011;8419;52.358;9.752;2022-12-24T09:35:52;15.35;;;5.00;;
16612;SDS011;8419;52.358;9.752;2022-12-24T09:38:37;20.75;;;4.55;;
16612;SDS011;8419;52.358;9.752;2022-12-24T09:41:27;15.02;;;4.53;;
16612;SDS011;8419;52.358;9.752;2022-12-24T09:44:30;15.02;;;4.57;;
16612;SDS011;8419;52.358;9.752;2022-12-24T09:47:23;18.95;;;4.68;;
16612;SDS011;8419;52.358;9.752;2022-12-24T09:50:18;17.30;;;5.50;;
16612;SDS011;8419;52.358;9.752;2022-12-24T09:53:14;14.73;;;4.47;;
16612;SDS011;8419;52.358;9.752;2022-12-24T09:56:05;10.05;;;4.57;;
16612;SDS011;8419;52.358;9.752;2022-12-24T09:58:56;8.02;;;2.58;;
16612;SDS011;8419;52.358;9.752;2022-12-24T10:01:43;13.62;;;4.00;;
16612;SDS011;8419;52.358;9.752;2022-12-24T10:04:29;10.73;;;3.75;;
16612;SDS011;8419;52.358;9.752;2022-12-24T10:07:24;14.45;;;4.32;;
16612;SDS011;8419;52.358;9.752;2022-12-24T10:10:19;13.35;;;3.00;;
16612;SDS011;8419;52.358;9.752;2022-12-24T10:13:14;8.73;;;3.20;;
16612;SDS011;8419;52.358;9.752;2022-12-24T10:16:10;17.45;;;4.15;;
16612;SDS011;8419;52.358;9.752;2022-12-24T10:19:07;11.75;;;2.80;;
16612;SDS011;8419;52.358;9.752;2022-12-24T10:22:02;12.07;;;3.40;;
16612;SDS011;8419;52.358;9.752;2022-12-24T10:24:59;9.82;;;3.83;;
16612;SDS011;8419;52.358;9.752;2022-12-24T10:27:49;11.07;;;3.37;;
16612;SDS011;8419;52.358;9.752;2022-12-24T10:30:37;10.45;;;3.10;;
16612;SDS011;8419;52.358;9.752;2022-12-24T10:33:25;6.47;;;2.12;;
16612;SDS011;8419;52.358;9.752;2022-12-24T10:36:16;14.38;;;3.22;;
16612;SDS011;8419;52.358;9.752;2022-12-24T10:39:04;9.20;;;3.53;;
16612;SDS011;8419;52.358;9.752;2022-12-24T10:41:57;14.85;;;3.45;;
16612;SDS011;8419;52.358;9.752;2022-12-24T10:44:44;8.45;;;2.15;;
16612;SDS011;8419;52.358;9.752;2022-12-24T10:47:35;11.75;;;3.17;;
16612;SDS011;8419;52.358;9.752;2022-12-24T10:50:26;6.95;;;2.42;;
16612;SDS011;8419;52.358;9.752;2022-12-24T10:53:18;11.45;;;2.72;;
16612;SDS011;8419;52.358;9.752;2022-12-24T10:56:09;9.52;;;2.20;;
16612;SDS011;8419;52.358;9.752;2022-12-24T10:58:57;7.00;;;2.03;;
16612;SDS011;8419;52.358;9.752;2022-12-24T11:01:43;14.23;;;3.12;;
16612;SDS011;8419;52.358;9.752;2022-12-24T11:04:30;9.57;;;2.40;;
16612;SDS011;8419;52.358;9.752;2022-12-24T11:07:29;7.40;;;2.47;;
16612;SDS011;8419;52.358;9.752;2022-12-24T11:10:21;5.87;;;2.25;;
16612;SDS011;8419;52.358;9.752;2022-12-24T11:13:15;5.35;;;1.62;;
16612;SDS011;8419;52.358;9.752;2022-12-24T11:16:09;7.78;;;1.83;;
16612;SDS011;8419;52.358;9.752;2022-12-24T11:19:04;10.52;;;2.65;;
16612;SDS011;8419;52.358;9.752;2022-12-24T11:22:01;4.95;;;1.60;;
16612;SDS011;8419;52.358;9.752;2022-12-24T11:24:54;7.30;;;2.67;;
16612;SDS011;8419;52.358;9.752;2022-12-24T11:27:43;6.75;;;2.53;;
16612;SDS011;8419;52.358;9.752;2022-12-24T11:30:33;9.90;;;2.75;;
16612;SDS011;8419;52.358;9.752;2022-12-24T11:33:20;10.43;;;3.67;;
16612;SDS011;8419;52.358;9.752;2022-12-24T11:36:09;5.15;;;2.60;;
16612;SDS011;8419;52.358;9.752;2022-12-24T11:38:56;7.47;;;3.08;;
16612;SDS011;8419;52.358;9.752;2022-12-24T11:41:42;4.60;;;1.12;;
16612;SDS011;8419;52.358;9.752;2022-12-24T11:44:27;7.43;;;3.15;;
16612;SDS011;8419;52.358;9.752;2022-12-24T11:47:14;6.40;;;1.87;;
16612;SDS011;8419;52.358;9.752;2022-12-24T11:53:06;13.62;;;3.00;;
16612;SDS011;8419;52.358;9.752;2022-12-24T11:55:59;3.92;;;1.40;;
16612;SDS011;8419;52.358;9.752;2022-12-24T11:58:53;3.65;;;1.73;;
16612;SDS011;8419;52.358;9.752;2022-12-24T12:01:47;4.80;;;1.55;;
16612;SDS011;8419;52.358;9.752;2022-12-24T12:04:38;4.53;;;1.80;;
16612;SDS011;8419;52.358;9.752;2022-12-24T12:07:28;6.00;;;2.10;;
16612;SDS011;8419;52.358;9.752;2022-12-24T12:10:18;6.05;;;2.30;;
16612;SDS011;8419;52.358;9.752;2022-12-24T12:13:10;7.37;;;2.05;;
16612;SDS011;8419;52.358;9.752;2022-12-24T12:16:04;0.85;;;0.80;;
16612;SDS011;8419;52.358;9.752;2022-12-24T12:18:59;7.12;;;1.65;;
16612;SDS011;8419;52.358;9.752;2022-12-24T12:21:48;3.50;;;1.10;;
16612;SDS011;8419;52.358;9.752;2022-12-24T12:24:36;7.55;;;1.80;;
16612;SDS011;8419;52.358;9.752;2022-12-24T12:27:29;4.28;;;1.33;;
16612;SDS011;8419;52.358;9.752;2022-12-24T12:30:20;4.53;;;1.65;;
16612;SDS011;8419;52.358;9.752;2022-12-24T12:33:10;1.00;;;0.82;;
16612;SDS011;8419;52.358;9.752;2022-12-24T12:36:04;2.85;;;1.62;;
16612;SDS011;8419;52.358;9.752;2022-12-24T12:38:53;3.28;;;1.27;;
16612;SDS011;8419;52.358;9.752;2022-12-24T12:41:43;5.97;;;2.05;;
16612;SDS011;8419;52.358;9.752;2022-12-24T12:44:43;4.12;;;1.33;;
16612;SDS011;8419;52.358;9.752;2022-12-24T12:47:44;4.72;;;2.00;;
16612;SDS011;8419;52.358;9.752;2022-12-24T12:50:44;5.03;;;3.03;;
16612;SDS011;8419;52.358;9.752;2022-12-24T12:53:39;7.72;;;2.72;;
16612;SDS011;8419;52.358;9.752;2022-12-24T12:56:35;7.47;;;2.30;;
16612;SDS011;8419;52.358;9.752;2022-12-24T12:59:24;8.63;;;2.78;;
16612;SDS011;8419;52.358;9.752;2022-12-24T13:02:24;6.03;;;2.87;;
16612;SDS011;8419;52.358;9.752;2022-12-24T13:05:37;11.30;;;3.25;;
16612;SDS011;8419;52.358;9.752;2022-12-24T13:08:49;6.03;;;2.85;;
16612;SDS011;8419;52.358;9.752;2022-12-24T13:12:01;7.68;;;2.92;;
16612;SDS011;8419;52.358;9.752;2022-12-24T13:15:22;8.77;;;2.15;;
16612;SDS011;8419;52.358;9.752;2022-12-24T13:18:27;13.43;;;3.20;;
16612;SDS011;8419;52.358;9.752;2022-12-24T13:21:26;7.78;;;3.55;;
16612;SDS011;8419;52.358;9.752;2022-12-24T13:24:15;10.27;;;3.92;;
16612;SDS011;8419;52.358;9.752;2022-12-24T13:27:03;12.18;;;3.70;;
16612;SDS011;8419;52.358;9.752;2022-12-24T13:29:52;13.95;;;2.92;;
16612;SDS011;8419;52.358;9.752;2022-12-24T13:32:39;12.23;;;3.60;;
16612;SDS011;8419;52.358;9.752;2022-12-24T13:35:32;11.85;;;3.20;;
16612;SDS011;8419;52.358;9.752;2022-12-24T13:38:29;12.05;;;3.67;;
16612;SDS011;8419;52.358;9.752;2022-12-24T13:44:47;11.82;;;2.70;;
16612;SDS011;8419;52.358;9.752;2022-12-24T13:48:26;1.25;;;1.02;;
16612;SDS011;8419;52.358;9.752;2022-12-24T13:51:18;1.87;;;0.73;;
16612;SDS011;8419;52.358;9.752;2022-12-24T13:54:08;2.97;;;0.93;;
16612;SDS011;8419;52.358;9.752;2022-12-24T13:56:57;0.82;;;0.55;;
16612;SDS011;8419;52.358;9.752;2022-12-24T13:59:44;5.10;;;0.80;;
16612;SDS011;8419;52.358;9.752;2022-12-24T14:02:32;2.45;;;0.47;;
16612;SDS011;8419;52.358;9.752;2022-12-24T14:05:23;1.27;;;0.60;;
16612;SDS011;8419;52.358;9.752;2022-12-24T14:08:15;0.62;;;0.60;;
16612;SDS011;8419;52.358;9.752;2022-12-24T14:11:12;0.88;;;0.45;;
16612;SDS011;8419;52.358;9.752;2022-12-24T14:14:11;0.70;;;0.50;;
16612;SDS011;8419;52.358;9.752;2022-12-24T14:17:12;1.25;;;0.85;;
16612;SDS011;8419;52.358;9.752;2022-12-24T14:20:06;1.12;;;0.93;;
16612;SDS011;8419;52.358;9.752;2022-12-24T14:22:53;4.40;;;1.17;;
16612;SDS011;8419;52.358;9.752;2022-12-24T14:25:39;4.80;;;0.95;;
16612;SDS011;8419;52.358;9.752;2022-12-24T14:30:59;3.65;;;1.00;;
16612;SDS011;8419;52.358;9.752;2022-12-24T14:33:45;3.53;;;1.05;;
16612;SDS011;8419;52.358;9.752;2022-12-24T14:36:31;4.65;;;1.58;;
16612;SDS011;8419;52.358;9.752;2022-12-24T14:39:21;4.70;;;1.60;;
16612;SDS011;8419;52.358;9.752;2022-12-24T14:42:17;2.60;;;1.20;;
16612;SDS011;8419;52.358;9.752;2022-12-24T14:45:17;4.70;;;1.37;;
16612;SDS011;8419;52.358;9.752;2022-12-24T14:48:14;3.83;;;1.60;;
16612;SDS011;8419;52.358;9.752;2022-12-24T14:51:06;6.90;;;2.08;;
16612;SDS011;8419;52.358;9.752;2022-12-24T14:54:11;6.95;;;1.52;;
16612;SDS011;8419;52.358;9.752;2022-12-24T14:57:13;8.88;;;1.83;;
16612;SDS011;8419;52.358;9.752;2022-12-24T15:00:07;8.15;;;1.98;;
16612;SDS011;8419;52.358;9.752;2022-12-24T15:03:06;6.47;;;1.90;;
16612;SDS011;8419;52.358;9.752;2022-12-24T15:05:58;3.85;;;2.20;;
16612;SDS011;8419;52.358;9.752;2022-12-24T15:08:49;6.95;;;2.37;;
16612;SDS011;8419;52.358;9.752;2022-12-24T15:11:35;8.48;;;2.62;;
16612;SDS011;8419;52.358;9.752;2022-12-24T15:14:23;8.68;;;2.80;;
16612;SDS011;8419;52.358;9.752;2022-12-24T15:17:11;12.07;;;3.72;;
16612;SDS011;8419;52.358;9.752;2022-12-24T15:19:59;7.75;;;3.47;;
16612;SDS011;8419;52.358;9.752;2022-12-24T15:22:49;14.60;;;3.90;;
16612;SDS011;8419;52.358;9.752;2022-12-24T15:25:38;8.73;;;3.45;;
16612;SDS011;8419;52.358;9.752;2022-12-24T15:28:23;9.05;;;3.55;;
16612;SDS011;8419;52.358;9.752;2022-12-24T15:31:11;9.80;;;3.35;;
16612;SDS011;8419;52.358;9.752;2022-12-24T15:33:58;9.05;;;3.85;;
16612;SDS011;8419;52.358;9.752;2022-12-24T15:36:44;13.23;;;3.95;;
16612;SDS011;8419;52.358;9.752;2022-12-24T15:39:29;12.05;;;4.87;;
16612;SDS011;8419;52.358;9.752;2022-12-24T15:42:16;14.25;;;4.18;;
16612;SDS011;8419;52.358;9.752;2022-12-24T15:45:06;12.37;;;4.75;;
16612;SDS011;8419;52.358;9.752;2022-12-24T15:47:59;12.30;;;4.35;;
16612;SDS011;8419;52.358;9.752;2022-12-24T15:50:54;15.27;;;4.65;;
16612;SDS011;8419;52.358;9.752;2022-12-24T15:53:42;15.32;;;4.87;;
16612;SDS011;8419;52.358;9.752;2022-12-24T15:56:36;10.15;;;3.75;;
16612;SDS011;8419;52.358;9.752;2022-12-24T15:59:28;14.30;;;4.87;;
16612;SDS011;8419;52.358;9.752;2022-12-24T16:02:38;13.13;;;4.18;;
16612;SDS011;8419;52.358;9.752;2022-12-24T16:05:30;16.80;;;4.97;;
16612;SDS011;8419;52.358;9.752;2022-12-24T16:08:27;17.25;;;4.68;;
16612;SDS011;8419;52.358;9.752;2022-12-24T16:11:14;17.23;;;5.05;;
16612;SDS011;8419;52.358;9.752;2022-12-24T16:14:03;15.82;;;4.50;;
16612;SDS011;8419;52.358;9.752;2022-12-24T16:16:56;21.67;;;5.25;;
16612;SDS011;8419;52.358;9.752;2022-12-24T16:19:41;13.32;;;4.40;;
16612;SDS011;8419;52.358;9.752;2022-12-24T16:22:31;15.98;;;4.55;;
16612;SDS011;8419;52.358;9.752;2022-12-24T16:25:23;17.05;;;5.12;;
16612;SDS011;8419;52.358;9.752;2022-12-24T16:28:10;14.10;;;4.68;;
16612;SDS011;8419;52.358;9.752;2022-12-24T16:30:57;19.52;;;4.62;;
16612;SDS011;8419;52.358;9.752;2022-12-24T16:33:43;18.67;;;4.87;;
16612;SDS011;8419;52.358;9.752;2022-12-24T16:36:30;20.12;;;5.60;;
16612;SDS011;8419;52.358;9.752;2022-12-24T16:39:18;14.70;;;5.93;;
16612;SDS011;8419;52.358;9.752;2022-12-24T16:42:08;20.48;;;5.22;;
16612;SDS011;8419;52.358;9.752;2022-12-24T16:45:12;14.43;;;5.25;;
16612;SDS011;8419;52.358;9.752;2022-12-24T16:47:58;16.20;;;4.90;;
16612;SDS011;8419;52.358;9.752;2022-12-24T16:50:44;16.33;;;5.32;;
16612;SDS011;8419;52.358;9.752;2022-12-24T16:53:29;15.98;;;5.32;;
16612;SDS011;8419;52.358;9.752;2022-12-24T16:56:15;18.33;;;5.15;;
16612;SDS011;8419;52.358;9.752;2022-12-24T16:59:01;18.90;;;6.32;;
16612;SDS011;8419;52.358;9.752;2022-12-24T17:01:47;12.10;;;5.00;;
16612;SDS011;8419;52.358;9.752;2022-12-24T17:04:34;21.08;;;5.68;;
16612;SDS011;8419;52.358;9.752;2022-12-24T17:07:19;12.52;;;5.85;;
16612;SDS011;8419;52.358;9.752;2022-12-24T17:10:09;17.75;;;6.22;;
16612;SDS011;8419;52.358;9.752;2022-12-24T17:12:57;17.65;;;5.78;;
16612;SDS011;8419;52.358;9.752;2022-12-24T17:15:42;17.55;;;6.18;;
16612;SDS011;8419;52.358;9.752;2022-12-24T17:18:27;21.00;;;6.00;;
16612;SDS011;8419;52.358;9.752;2022-12-24T17:21:13;13.40;;;6.62;;
16612;SDS011;8419;52.358;9.752;2022-12-24T17:23:58;17.77;;;6.32;;
16612;SDS011;8419;52.358;9.752;2022-12-24T17:26:44;28.55;;;6.62;;